createdAt,value
2023-05-23T00:02:24.047Z,18.09
2023-05-23T00:07:26.407Z,17.97
2023-05-23T00:12:28.057Z,17.97
2023-05-23T00:17:29.848Z,18.03
2023-05-23T00:22:31.587Z,18.36
2023-05-23T00:27:33.212Z,18.28
2023-05-23T00:32:35.679Z,17.85
2023-05-23T00:37:38.172Z,17.49
2023-05-23T00:42:39.834Z,17.36
2023-05-23T00:47:42.482Z,17.00
2023-05-23T00:52:46.281Z,17.05
2023-05-23T00:57:48.517Z,16.97
2023-05-23T01:02:52.127Z,17.05
2023-05-23T01:07:54.650Z,17.09
2023-05-23T01:13:02.698Z,16.98
2023-05-23T01:18:14.502Z,17.34
2023-05-23T01:23:28.412Z,17.10
2023-05-23T01:28:40.972Z,16.98
2023-05-23T01:33:44.022Z,16.79
2023-05-23T01:38:45.703Z,16.80
2023-05-23T01:43:47.765Z,16.64
2023-05-23T01:48:50.604Z,16.58
2023-05-23T01:53:52.480Z,16.55
2023-05-23T01:58:54.410Z,16.41
2023-05-23T02:03:57.102Z,16.77
2023-05-23T02:08:58.782Z,16.64
2023-05-23T02:14:00.984Z,16.67
2023-05-23T02:19:03.580Z,16.65
2023-05-23T02:24:05.519Z,16.81
2023-05-23T02:29:07.321Z,16.50
2023-05-23T02:34:09.058Z,16.45
2023-05-23T02:39:10.835Z,16.71
2023-05-23T02:44:12.708Z,16.41
2023-05-23T02:49:14.593Z,16.32
2023-05-23T02:54:16.869Z,16.33
2023-05-23T02:59:18.771Z,16.29
2023-05-23T03:04:21.431Z,16.46
2023-05-23T03:09:23.108Z,16.49
2023-05-23T03:14:25.148Z,16.19
2023-05-23T03:19:26.925Z,16.35
2023-05-23T03:24:28.756Z,16.31
2023-05-23T03:29:30.542Z,16.08
2023-05-23T03:34:33.944Z,16.19
2023-05-23T03:39:36.875Z,16.26
2023-05-23T03:44:40.475Z,16.43
2023-05-23T03:49:42.453Z,16.19
2023-05-23T03:54:44.586Z,16.23
2023-05-23T03:59:46.411Z,16.02
2023-05-23T04:04:48.486Z,15.98
2023-05-23T04:09:50.317Z,16.06
2023-05-23T04:14:52.990Z,16.06
2023-05-23T04:19:55.219Z,16.14
2023-05-23T04:24:57.746Z,16.16
2023-05-23T04:30:03.979Z,16.21
2023-05-23T04:35:07.351Z,16.36
2023-05-23T04:40:13.567Z,16.31
2023-05-23T04:45:34.023Z,16.27
2023-05-23T04:50:47.816Z,16.42
2023-05-23T04:55:50.203Z,16.54
2023-05-23T05:00:53.701Z,16.53
2023-05-23T05:05:56.230Z,16.27
2023-05-23T05:10:58.232Z,16.64
2023-05-23T05:16:00.086Z,16.70
2023-05-23T05:21:02.315Z,16.92
2023-05-23T05:26:05.455Z,17.01
2023-05-23T05:31:07.406Z,17.21
2023-05-23T05:36:11.042Z,17.00
2023-05-23T05:41:13.361Z,17.25
2023-05-23T05:46:20.884Z,17.22
2023-05-23T05:51:22.729Z,17.21
2023-05-23T05:56:24.681Z,17.48
2023-05-23T06:01:26.865Z,17.69
2023-05-23T06:06:28.886Z,17.58
2023-05-23T06:11:30.988Z,17.77
2023-05-23T06:16:33.284Z,17.83
2023-05-23T06:21:35.171Z,17.78
2023-05-23T06:26:39.413Z,17.69
2023-05-23T06:31:41.221Z,17.54
2023-05-23T06:36:43.124Z,17.63
2023-05-23T06:41:44.897Z,17.51
2023-05-23T06:46:47.110Z,17.54
2023-05-23T06:51:51.043Z,17.71
2023-05-23T06:56:53.402Z,17.56
2023-05-23T07:01:56.069Z,17.78
2023-05-23T07:06:59.679Z,17.85
2023-05-23T07:12:01.436Z,18.27
2023-05-23T07:17:04.136Z,18.20
2023-05-23T07:22:06.188Z,18.23
2023-05-23T07:27:10.572Z,18.39
2023-05-23T07:32:13.848Z,18.40
2023-05-23T07:37:15.947Z,18.28
2023-05-23T07:42:19.983Z,18.46
2023-05-23T07:47:21.906Z,18.94
2023-05-23T07:52:23.990Z,19.69
2023-05-23T07:57:26.234Z,19.69
2023-05-23T08:02:28.738Z,19.88
2023-05-23T08:07:31.261Z,20.21
2023-05-23T08:12:36.705Z,20.36
2023-05-23T08:17:46.517Z,20.52
2023-05-23T08:22:48.411Z,20.91
2023-05-23T08:27:51.493Z,20.79
2023-05-23T08:33:13.230Z,20.50
2023-05-23T08:38:21.931Z,20.06
2023-05-23T08:43:35.059Z,20.00
2023-05-23T08:48:38.975Z,19.65
2023-05-23T08:53:47.140Z,19.73
2023-05-23T08:58:49.642Z,19.66
2023-05-23T09:03:54.498Z,19.68
2023-05-23T09:09:12.446Z,19.77
2023-05-23T09:14:15.521Z,19.34
2023-05-23T09:19:19.096Z,19.25
2023-05-23T09:24:34.993Z,19.20
2023-05-23T09:29:40.327Z,19.11
2023-05-23T09:34:57.143Z,18.59
2023-05-23T09:40:01.036Z,18.43
2023-05-23T09:45:04.838Z,18.25
2023-05-23T09:50:08.958Z,18.18
2023-05-23T09:55:11.052Z,18.34
2023-05-23T10:00:16.982Z,18.13
2023-05-23T10:05:42.031Z,17.84
2023-05-23T10:11:13.171Z,18.03
2023-05-23T10:16:29.166Z,18.23
2023-05-23T10:21:46.449Z,18.21
2023-05-23T10:26:48.972Z,18.76
2023-05-23T10:31:53.053Z,18.87
2023-05-23T10:37:20.797Z,19.17
2023-05-23T10:42:41.074Z,18.84
2023-05-23T10:47:43.232Z,18.36
2023-05-23T10:52:45.184Z,18.78
2023-05-23T10:57:47.181Z,18.98
2023-05-23T11:03:00.877Z,18.80
2023-05-23T11:08:15.370Z,18.97
2023-05-23T11:13:17.412Z,19.14
2023-05-23T11:18:24.665Z,19.12
2023-05-23T11:23:40.513Z,19.06
2023-05-23T11:28:58.778Z,18.97
2023-05-23T11:34:01.594Z,18.89
2023-05-23T11:39:04.172Z,18.94
2023-05-23T11:44:13.308Z,19.01
2023-05-23T11:49:15.172Z,19.01
2023-05-23T11:54:17.171Z,18.95
2023-05-23T11:59:19.028Z,19.26
2023-05-23T12:04:21.013Z,19.05
2023-05-23T12:09:22.905Z,19.35
2023-05-23T12:14:29.036Z,19.67
2023-05-23T12:19:31.195Z,20.10
2023-05-23T12:24:33.059Z,20.12
2023-05-23T12:29:35.891Z,20.25
2023-05-23T12:34:42.688Z,19.96
2023-05-23T12:39:45.370Z,19.19
2023-05-23T12:44:51.305Z,18.71
2023-05-23T12:49:53.155Z,18.67
2023-05-23T12:54:54.902Z,18.37
2023-05-23T12:59:56.615Z,18.17
2023-05-23T13:04:58.410Z,18.05
2023-05-23T13:10:00.703Z,17.91
2023-05-23T13:15:02.477Z,17.90
2023-05-23T13:20:05.339Z,17.52
2023-05-23T13:25:08.679Z,17.53
2023-05-23T13:30:10.774Z,17.22
2023-05-23T13:35:12.907Z,17.15
2023-05-23T13:40:19.845Z,16.97
2023-05-23T13:45:23.212Z,16.72
2023-05-23T13:50:25.210Z,16.45
2023-05-23T13:55:27.614Z,16.36
2023-05-23T14:00:29.332Z,16.28
2023-05-23T14:05:31.150Z,16.29
2023-05-23T14:10:35.730Z,16.54
2023-05-23T14:15:38.470Z,16.46
2023-05-23T14:20:40.464Z,16.40
2023-05-23T14:25:42.699Z,16.46
2023-05-23T14:30:44.619Z,16.24
2023-05-23T14:35:46.392Z,16.38
2023-05-23T14:40:48.882Z,16.35
2023-05-23T14:45:50.715Z,16.37
2023-05-23T14:50:52.497Z,16.31
2023-05-23T14:55:54.618Z,16.05
2023-05-23T15:00:57.395Z,16.00
2023-05-23T15:06:00.209Z,16.13
2023-05-23T15:11:01.934Z,16.05
2023-05-23T15:16:03.764Z,16.02
2023-05-23T15:21:05.786Z,15.91
2023-05-23T15:26:07.578Z,15.89
2023-05-23T15:31:09.274Z,16.10
2023-05-23T15:36:13.129Z,15.88
2023-05-23T15:41:16.886Z,15.58
2023-05-23T15:46:18.724Z,15.49
2023-05-23T15:51:21.067Z,15.32
2023-05-23T15:56:22.839Z,15.03
2023-05-23T16:01:24.629Z,15.06
2023-05-23T16:06:28.161Z,14.97
2023-05-23T16:11:29.922Z,14.84
2023-05-23T16:16:31.773Z,14.71
2023-05-23T16:21:33.559Z,14.39
2023-05-23T16:26:35.375Z,14.22
2023-05-23T16:31:37.188Z,14.23
2023-05-23T16:36:38.914Z,14.29
2023-05-23T16:41:40.705Z,14.15
2023-05-23T16:46:42.529Z,14.13
2023-05-23T16:51:46.485Z,13.97
2023-05-23T16:56:49.607Z,13.99
2023-05-23T17:01:51.527Z,13.66
2023-05-23T17:06:53.455Z,13.50
2023-05-23T17:11:55.248Z,13.38
2023-05-23T17:16:57.004Z,13.21
2023-05-23T17:21:59.049Z,13.25
2023-05-23T17:27:00.717Z,13.14
2023-05-23T17:32:02.602Z,13.03
2023-05-23T17:37:04.666Z,12.94
2023-05-23T17:42:07.055Z,12.93
2023-05-23T17:47:08.869Z,13.01
2023-05-23T17:52:14.764Z,12.89
2023-05-23T17:57:16.939Z,12.65
2023-05-23T18:02:19.287Z,12.42
2023-05-23T18:07:21.334Z,12.48
2023-05-23T18:12:23.062Z,12.41
2023-05-23T18:17:25.214Z,12.44
2023-05-23T18:22:26.952Z,12.20
2023-05-23T18:27:28.648Z,11.97
2023-05-23T18:32:31.419Z,11.99
2023-05-23T18:37:33.141Z,11.92
2023-05-23T18:42:35.081Z,11.87
2023-05-23T18:47:36.826Z,11.83
2023-05-23T18:52:38.936Z,11.90
2023-05-23T18:57:40.668Z,11.95
2023-05-23T19:02:44.651Z,11.91
2023-05-23T19:07:46.474Z,11.64
2023-05-23T19:12:48.213Z,11.52
2023-05-23T19:17:50.489Z,11.55
2023-05-23T19:22:52.874Z,11.64
2023-05-23T19:27:54.704Z,11.70
2023-05-23T19:32:56.568Z,11.49
2023-05-23T19:37:58.425Z,11.47
2023-05-23T19:43:00.181Z,11.61
2023-05-23T19:48:02.102Z,11.55
2023-05-23T19:53:03.830Z,11.62
2023-05-23T19:58:05.993Z,11.75
2023-05-23T20:03:08.469Z,11.56
2023-05-23T20:08:10.467Z,11.58
2023-05-23T20:13:12.330Z,11.70
2023-05-23T20:18:14.058Z,11.84
2023-05-23T20:23:15.845Z,11.79
2023-05-23T20:28:17.559Z,11.72
2023-05-23T20:33:19.895Z,11.66
2023-05-23T20:38:21.748Z,11.71
2023-05-23T20:43:23.727Z,11.58
2023-05-23T20:48:25.499Z,11.67
2023-05-23T20:53:28.016Z,11.58
2023-05-23T20:58:29.796Z,11.65
2023-05-23T21:03:31.710Z,11.63
2023-05-23T21:08:34.872Z,11.57
2023-05-23T21:13:39.807Z,11.66
2023-05-23T21:18:41.805Z,11.50
2023-05-23T21:23:43.558Z,11.50
2023-05-23T21:28:45.763Z,11.56
2023-05-23T21:33:47.912Z,11.45
2023-05-23T21:38:49.582Z,11.53
2023-05-23T21:43:51.747Z,11.52
2023-05-23T21:48:53.446Z,11.53
2023-05-23T21:53:55.109Z,11.49
2023-05-23T21:59:06.350Z,11.60
2023-05-23T22:04:08.163Z,11.46
2023-05-23T22:09:11.528Z,11.56
2023-05-23T22:14:13.224Z,11.74
2023-05-23T22:19:18.003Z,11.67
2023-05-23T22:24:19.798Z,11.71
2023-05-23T22:29:21.683Z,11.73
2023-05-23T22:34:23.390Z,11.73
2023-05-23T22:39:25.042Z,11.55
2023-05-23T22:44:26.825Z,11.63
2023-05-23T22:49:30.142Z,11.46
2023-05-23T22:54:32.019Z,11.58
2023-05-23T22:59:33.791Z,11.57
2023-05-23T23:04:35.488Z,11.61
2023-05-23T23:09:37.453Z,11.46
2023-05-23T23:14:39.100Z,11.36
2023-05-23T23:19:41.271Z,11.24
2023-05-23T23:24:42.984Z,11.11
2023-05-23T23:29:44.720Z,11.13
2023-05-23T23:34:46.390Z,11.06
2023-05-23T23:39:48.218Z,10.91
2023-05-23T23:44:49.970Z,10.64
2023-05-23T23:49:51.910Z,10.71
2023-05-23T23:54:53.616Z,10.70
2023-05-23T23:59:55.530Z,10.59
